Time;durP1;ratioP1;P1;durP2;ratioP2;P2;SDS_P1;SDS_P2;PMS_P1;PMS_P2;Temp;Humidity;BMP_temperature;BMP_pressure;BME280_temperature;BME280_humidity;BME280_pressure;Samples;Min_cycle;Max_cycle;Signal;HPM_P1;HPM_P2
2024/04/13 00:01:21;;;;;;;9.35;4.78;;;;;;;14.59;100.00;102435.25;5372068;26;20073;-74
2024/04/13 00:03:49;;;;;;;11.60;5.35;;;;;;;14.56;100.00;102427.66;5402031;26;20762;-73
2024/04/13 00:06:15;;;;;;;18.10;5.50;;;;;;;14.62;100.00;102428.91;5400989;26;20009;-73
2024/04/13 00:08:41;;;;;;;13.88;4.75;;;;;;;14.53;100.00;102420.13;5436788;26;20060;-73
2024/04/13 00:11:08;;;;;;;11.63;5.45;;;;;;;14.51;100.00;102422.06;5430283;26;20011;-73
2024/04/13 00:13:38;;;;;;;9.68;4.97;;;;;;;14.45;100.00;102427.81;5401268;26;20014;-73
2024/04/13 00:16:05;;;;;;;10.18;5.18;;;;;;;14.43;100.00;102429.75;5432950;26;20440;-74
2024/04/13 00:18:34;;;;;;;8.75;4.93;;;;;;;14.39;100.00;102431.81;5404667;26;20357;-73
2024/04/13 00:21:02;;;;;;;15.52;5.85;;;;;;;14.44;100.00;102429.63;5436113;26;20465;-73
2024/04/13 00:23:28;;;;;;;14.05;5.18;;;;;;;14.41;100.00;102429.91;5401401;26;20007;-74
2024/04/13 00:25:57;;;;;;;14.90;5.78;;;;;;;14.38;100.00;102432.81;5375481;26;20530;-74
2024/04/13 00:28:23;;;;;;;11.55;5.68;;;;;;;14.35;100.00;102431.31;5404963;26;20007;-73
2024/04/13 00:30:49;;;;;;;10.65;4.95;;;;;;;14.31;100.00;102418.66;5400538;26;20022;-73
2024/04/13 00:33:15;;;;;;;11.25;4.72;;;;;;;14.30;100.00;102424.88;5405110;26;20415;-74
2024/04/13 00:35:42;;;;;;;13.35;4.95;;;;;;;14.26;100.00;102419.09;5408900;26;20849;-73
2024/04/13 00:38:09;;;;;;;10.30;5.20;;;;;;;14.25;100.00;102420.06;5436118;26;20469;-74
2024/04/13 00:40:35;;;;;;;10.68;4.80;;;;;;;14.24;100.00;102420.19;5406573;26;20042;-73
2024/04/13 00:43:08;;;;;;;12.13;5.40;;;;;;;14.21;100.00;102416.09;5413046;26;20011;-73
2024/04/13 00:45:42;;;;;;;12.27;4.93;;;;;;;14.20;100.00;102422.25;5440188;26;20039;-73
2024/04/13 00:48:11;;;;;;;11.85;4.85;;;;;;;14.18;100.00;102429.41;5441187;26;20024;-73
2024/04/13 00:50:43;;;;;;;13.45;5.28;;;;;;;14.19;100.00;102425.84;5411171;26;20076;-73
2024/04/13 00:53:11;;;;;;;11.07;4.93;;;;;;;14.16;100.00;102419.09;5380749;26;20011;-73
2024/04/13 00:55:40;;;;;;;9.02;4.63;;;;;;;14.13;100.00;102421.19;5410174;26;20088;-74
2024/04/13 00:58:06;;;;;;;9.05;4.43;;;;;;;14.11;100.00;102417.88;5410200;26;20511;-74
2024/04/13 01:00:35;;;;;;;13.65;4.35;;;;;;;14.11;100.00;102415.28;5400826;26;20007;-73
2024/04/13 01:03:03;;;;;;;9.63;4.15;;;;;;;14.11;100.00;102418.72;5439670;26;20026;-73
2024/04/13 01:05:30;;;;;;;9.10;4.40;;;;;;;14.11;100.00;102415.28;5438478;26;20021;-73
2024/04/13 01:07:56;;;;;;;9.85;4.35;;;;;;;14.10;100.00;102411.84;5437788;26;20015;-73
2024/04/13 01:10:23;;;;;;;13.15;5.00;;;;;;;14.10;100.00;102405.81;5372854;26;20007;-73
2024/04/13 01:12:52;;;;;;;9.38;4.85;;;;;;;14.08;100.00;102398.13;5409163;26;20377;-74
2024/04/13 01:15:19;;;;;;;8.45;4.22;;;;;;;14.04;100.00;102396.75;5433625;26;20060;-73
2024/04/13 01:17:46;;;;;;;7.22;4.20;;;;;;;14.04;100.00;102399.38;5443682;26;20084;-73
2024/04/13 01:20:13;;;;;;;7.80;4.18;;;;;;;14.04;100.00;102401.97;5438979;26;20013;-73
2024/04/13 01:22:43;;;;;;;9.50;4.25;;;;;;;14.02;100.00;102402.13;5446144;26;20010;-73
2024/04/13 01:25:10;;;;;;;8.57;4.40;;;;;;;14.00;100.00;102403.22;5435970;26;20481;-73
2024/04/13 01:27:36;;;;;;;9.07;4.78;;;;;;;14.00;100.00;102400.63;5414347;26;20021;-74
2024/04/13 01:30:04;;;;;;;9.38;4.85;;;;;;;14.01;100.00;102405.69;5441083;26;19999;-74
2024/04/13 01:32:30;;;;;;;8.73;4.63;;;;;;;13.96;100.00;102399.25;5415007;26;20087;-73
2024/04/13 01:35:08;;;;;;;9.10;4.30;;;;;;;13.92;100.00;102398.72;5444560;26;20014;-73
2024/04/13 01:37:34;;;;;;;9.23;4.28;;;;;;;13.91;100.00;102389.22;5410104;26;20007;-73
2024/04/13 01:40:00;;;;;;;8.43;4.40;;;;;;;13.90;100.00;102394.56;5378426;26;20014;-73
2024/04/13 01:42:26;;;;;;;13.73;4.60;;;;;;;13.90;100.00;102390.22;5445866;26;20003;-73
2024/04/13 01:44:52;;;;;;;11.63;4.28;;;;;;;13.87;100.00;102393.09;5441963;26;20030;-73
2024/04/13 01:47:18;;;;;;;9.88;4.60;;;;;;;13.87;100.00;102394.88;5444568;26;20465;-73
2024/04/13 01:49:44;;;;;;;11.75;4.60;;;;;;;13.85;100.00;102400.22;5442589;26;20019;-73
2024/04/13 01:52:10;;;;;;;15.45;5.50;;;;;;;13.86;100.00;102398.44;5444970;26;20003;-73
2024/04/13 01:54:36;;;;;;;9.85;4.65;;;;;;;13.87;100.00;102397.47;5441369;26;20006;-74
2024/04/13 01:57:02;;;;;;;11.10;5.22;;;;;;;13.83;100.00;102389.13;5442916;26;20017;-73
2024/04/13 01:59:28;;;;;;;8.65;5.30;;;;;;;13.81;100.00;102396.25;5443880;26;20017;-73
2024/04/13 02:01:54;;;;;;;11.73;4.70;;;;;;;13.79;100.00;102400.78;5444739;26;20022;-73
2024/04/13 02:04:20;;;;;;;11.65;4.82;;;;;;;13.76;100.00;102396.66;5443455;26;20007;-74
2024/04/13 02:06:46;;;;;;;8.90;4.45;;;;;;;13.75;100.00;102388.97;5437370;26;20018;-73
2024/04/13 02:09:13;;;;;;;10.68;4.65;;;;;;;13.72;100.00;102384.84;5443051;26;20030;-73
2024/04/13 02:11:40;;;;;;;8.65;4.38;;;;;;;13.70;100.00;102378.97;5441186;26;20592;-73
2024/04/13 02:14:06;;;;;;;10.55;4.43;;;;;;;13.69;100.00;102390.34;5440465;26;20993;-73
2024/04/13 02:16:32;;;;;;;8.55;4.03;;;;;;;13.65;100.00;102378.53;5444029;26;20561;-73
2024/04/13 02:18:58;;;;;;;10.25;4.38;;;;;;;13.62;100.00;102377.03;5441508;26;20044;-73
2024/04/13 02:21:24;;;;;;;9.50;4.32;;;;;;;13.59;100.00;102372.09;5441964;26;20007;-73
2024/04/13 02:23:50;;;;;;;8.82;4.45;;;;;;;13.57;100.00;102368.00;5442509;26;20010;-73
2024/04/13 02:26:16;;;;;;;7.72;4.38;;;;;;;13.54;100.00;102365.66;5373719;26;20050;-73
2024/04/13 02:28:42;;;;;;;7.82;4.35;;;;;;;13.53;100.00;102370.06;5412139;26;20015;-73
2024/04/13 02:31:08;;;;;;;7.95;3.88;;;;;;;13.50;100.00;102367.69;5443028;26;20011;-73
2024/04/13 02:33:34;;;;;;;8.50;4.05;;;;;;;13.50;100.00;102372.09;5445568;26;20369;-73
2024/04/13 02:36:04;;;;;;;8.85;4.55;;;;;;;13.47;100.00;102365.41;5388939;26;20018;-73
2024/04/13 02:38:32;;;;;;;11.98;4.32;;;;;;;13.42;100.00;102363.19;5410895;26;20007;-73
2024/04/13 02:40:59;;;;;;;8.25;4.28;;;;;;;13.40;100.00;102362.50;5441410;26;20710;-75
2024/04/13 02:43:26;;;;;;;9.93;4.45;;;;;;;13.39;100.00;102362.63;5412378;26;20006;-73
2024/04/13 02:45:52;;;;;;;8.38;4.25;;;;;;;13.35;100.00;102362.06;5442981;26;20018;-73
2024/04/13 02:48:20;;;;;;;8.38;4.72;;;;;;;13.31;100.00;102360.72;5443193;26;20395;-73
2024/04/13 02:50:47;;;;;;;7.47;3.83;;;;;;;13.30;100.00;102366.00;5411857;26;20014;-73
2024/04/13 02:53:13;;;;;;;8.82;4.47;;;;;;;13.25;100.00;102361.22;5445036;26;20013;-73
2024/04/13 02:55:39;;;;;;;9.38;4.00;;;;;;;13.22;100.00;102364.94;5439350;26;20003;-73
2024/04/13 02:58:05;;;;;;;6.43;4.25;;;;;;;13.19;100.00;102359.97;5443421;26;20454;-73
2024/04/13 03:00:31;;;;;;;10.18;4.80;;;;;;;13.17;100.00;102363.69;5410496;26;20361;-73
2024/04/13 03:02:57;;;;;;;6.85;4.68;;;;;;;13.13;100.00;102357.09;5413649;26;20006;-73
2024/04/13 03:05:23;;;;;;;6.82;4.18;;;;;;;13.09;100.00;102361.75;5411601;26;20022;-73
2024/04/13 03:07:49;;;;;;;7.28;5.05;;;;;;;13.08;100.00;102365.31;5410597;26;20007;-73
2024/04/13 03:10:15;;;;;;;9.93;4.85;;;;;;;13.05;100.00;102356.00;5442902;26;20357;-73
2024/04/13 03:12:41;;;;;;;9.00;4.57;;;;;;;13.03;100.00;102355.31;5442814;26;20022;-73
2024/04/13 03:15:08;;;;;;;8.27;4.80;;;;;;;12.98;100.00;102349.69;5442438;26;20003;-73
2024/04/13 03:17:34;;;;;;;9.73;4.10;;;;;;;12.96;100.00;102359.41;5408060;26;20017;-73
2024/04/13 03:20:00;;;;;;;9.23;4.35;;;;;;;12.94;100.00;102360.47;5409500;26;20022;-74
2024/04/13 03:22:26;;;;;;;8.10;4.18;;;;;;;12.90;100.00;102359.09;5443464;26;20015;-73
2024/04/13 03:24:52;;;;;;;7.45;4.50;;;;;;;12.86;100.00;102358.53;5439190;26;20068;-73
2024/04/13 03:27:18;;;;;;;8.80;3.83;;;;;;;12.85;100.00;102357.72;5440351;26;20026;-73
2024/04/13 03:29:44;;;;;;;9.88;4.88;;;;;;;12.81;100.00;102363.34;5378580;26;20083;-73
2024/04/13 03:32:10;;;;;;;7.53;4.20;;;;;;;12.78;100.00;102364.41;5408342;26;20011;-73
2024/04/13 03:34:37;;;;;;;14.05;5.38;;;;;;;12.75;100.00;102348.22;5414607;26;20013;-73
2024/04/13 03:37:03;;;;;;;11.90;5.30;;;;;;;12.69;100.00;102361.78;5440364;26;20362;-73
2024/04/13 03:39:29;;;;;;;10.35;4.95;;;;;;;12.63;100.00;102353.53;5419131;26;19999;-73
2024/04/13 03:41:55;;;;;;;8.57;4.57;;;;;;;12.61;100.00;102354.63;5443238;26;20436;-73
2024/04/13 03:44:21;;;;;;;8.65;4.32;;;;;;;12.58;100.00;102353.13;5437469;26;20060;-73
2024/04/13 03:46:47;;;;;;;14.05;4.72;;;;;;;12.56;100.00;102357.63;5439638;26;20002;-73
2024/04/13 03:49:13;;;;;;;8.88;5.03;;;;;;;12.56;100.00;102349.00;5439899;26;20069;-73
2024/04/13 03:51:39;;;;;;;8.50;4.80;;;;;;;12.55;100.00;102348.19;5444270;26;20018;-73
2024/04/13 03:54:05;;;;;;;11.32;4.50;;;;;;;12.51;100.00;102346.81;5438267;26;20030;-73
2024/04/13 03:56:32;;;;;;;12.55;5.10;;;;;;;12.47;100.00;102350.63;5408809;26;20025;-73
2024/04/13 03:58:58;;;;;;;12.90;5.18;;;;;;;12.44;100.00;102345.66;5392316;26;20047;-73
2024/04/13 04:01:24;;;;;;;9.02;4.45;;;;;;;12.42;100.00;102348.41;5439913;26;20427;-73
2024/04/13 04:03:50;;;;;;;10.40;5.80;;;;;;;12.39;100.00;102345.22;5441137;26;20454;-73
2024/04/13 04:06:17;;;;;;;8.48;4.78;;;;;;;12.35;100.00;102357.66;5450585;26;20002;-73
2024/04/13 04:08:42;;;;;;;7.85;4.60;;;;;;;12.32;100.00;102355.34;5450788;26;19995;-73
2024/04/13 04:11:08;;;;;;;7.18;5.00;;;;;;;12.29;100.00;102355.59;5442079;26;20540;-73
2024/04/13 04:13:34;;;;;;;8.60;4.57;;;;;;;12.27;100.00;102358.31;5443445;26;20376;-72
2024/04/13 04:16:00;;;;;;;9.40;4.90;;;;;;;12.26;100.00;102355.84;5442803;26;20026;-73
2024/04/13 04:18:26;;;;;;;8.25;5.20;;;;;;;12.25;100.00;102359.41;5442396;26;20014;-73
2024/04/13 04:20:52;;;;;;;12.13;5.22;;;;;;;12.19;100.00;102358.16;5436671;26;20026;-73
2024/04/13 04:23:18;;;;;;;8.88;5.20;;;;;;;12.17;100.00;102360.06;5410703;26;20007;-73
2024/04/13 04:25:45;;;;;;;9.05;4.53;;;;;;;12.16;100.00;102368.78;5406928;26;20010;-73
2024/04/13 04:28:11;;;;;;;8.18;4.60;;;;;;;12.14;100.00;102369.88;5438130;26;20036;-73
2024/04/13 04:30:38;;;;;;;9.43;4.80;;;;;;;12.10;100.00;102361.50;5438998;26;20002;-73
2024/04/13 04:33:04;;;;;;;7.75;4.53;;;;;;;12.05;100.00;102374.06;5440332;26;20083;-73
2024/04/13 04:35:30;;;;;;;7.53;4.93;;;;;;;12.02;100.00;102371.75;5436643;26;20365;-73
2024/04/13 04:37:56;;;;;;;9.07;4.78;;;;;;;11.96;100.00;102372.22;5440649;26;19991;-73
2024/04/13 04:40:23;;;;;;;8.00;4.80;;;;;;;11.95;100.00;102373.19;5412327;26;20022;-73
2024/04/13 04:42:49;;;;;;;7.80;4.95;;;;;;;11.92;100.00;102373.44;5439309;26;20538;-73
2024/04/13 04:45:15;;;;;;;12.05;4.90;;;;;;;11.87;100.00;102374.59;5435091;26;20009;-73
2024/04/13 04:47:41;;;;;;;11.65;5.20;;;;;;;11.86;100.00;102366.94;5443050;26;20025;-73
2024/04/13 04:50:07;;;;;;;15.60;5.88;;;;;;;11.84;100.00;102374.03;5383441;26;20021;-73
2024/04/13 04:52:33;;;;;;;13.95;5.88;;;;;;;11.83;100.00;102362.81;5417398;26;20083;-74
2024/04/13 04:55:01;;;;;;;11.98;5.85;;;;;;;11.82;100.00;102363.75;5411012;26;20007;-73
2024/04/13 04:57:28;;;;;;;8.98;5.20;;;;;;;11.79;100.00;102366.63;5411084;26;20018;-73
2024/04/13 04:59:55;;;;;;;11.77;6.30;;;;;;;11.77;100.00;102367.69;5440235;26;20003;-73
2024/04/13 05:02:21;;;;;;;9.35;5.13;;;;;;;11.76;100.00;102366.88;5433931;26;20006;-73
2024/04/13 05:04:47;;;;;;;9.75;5.95;;;;;;;11.78;100.00;102369.34;5415103;26;20712;-73
2024/04/13 05:07:13;;;;;;;11.15;6.57;;;;;;;11.79;100.00;102368.38;5442530;26;20076;-73
2024/04/13 05:09:39;;;;;;;16.20;5.43;;;;;;;11.78;100.00;102370.16;5413092;26;20002;-73
2024/04/13 05:12:05;;;;;;;11.32;5.80;;;;;;;11.80;100.00;102370.03;5401339;26;20484;-75
2024/04/13 05:14:32;;;;;;;9.68;5.60;;;;;;;11.80;100.00;102368.25;5412480;26;20022;-73
2024/04/13 05:16:58;;;;;;;16.40;6.10;;;;;;;11.83;100.00;102369.81;5439301;26;20507;-73
2024/04/13 05:19:24;;;;;;;11.82;6.25;;;;;;;11.83;100.00;102362.81;5383176;26;20003;-73
2024/04/13 05:21:50;;;;;;;9.15;5.07;;;;;;;11.85;100.00;102365.31;5443641;26;20006;-73
2024/04/13 05:24:15;;;;;;;17.65;5.72;;;;;;;11.86;100.00;102361.72;5440937;26;20037;-73
2024/04/13 05:26:42;;;;;;;14.07;6.47;;;;;;;11.87;100.00;102355.59;5417893;26;20026;-73
2024/04/13 05:29:09;;;;;;;11.50;5.60;;;;;;;11.87;100.00;102359.00;5418314;26;20010;-73
2024/04/13 05:31:35;;;;;;;12.23;6.10;;;;;;;11.89;100.00;102361.50;5444494;26;19999;-73
2024/04/13 05:34:01;;;;;;;11.40;5.70;;;;;;;11.90;100.00;102363.16;5443073;26;20014;-73
2024/04/13 05:36:27;;;;;;;9.60;5.50;;;;;;;11.95;100.00;102366.22;5412622;26;20022;-73
2024/04/13 05:38:53;;;;;;;9.52;6.32;;;;;;;11.95;100.00;102361.00;5408063;26;20021;-73
2024/04/13 05:41:19;;;;;;;17.52;6.38;;;;;;;11.97;100.00;102364.31;5411449;26;19998;-73
2024/04/13 05:43:45;;;;;;;10.00;6.05;;;;;;;11.99;100.00;102362.41;5412806;26;20007;-73
2024/04/13 05:46:11;;;;;;;11.95;5.93;;;;;;;12.07;100.00;102360.00;5437431;26;20029;-73
2024/04/13 05:48:37;;;;;;;12.27;6.25;;;;;;;12.15;100.00;102367.16;5443895;26;20034;-73
2024/04/13 05:51:04;;;;;;;15.35;6.82;;;;;;;12.27;100.00;102360.09;5410638;26;20010;-73
2024/04/13 05:53:30;;;;;;;14.32;6.47;;;;;;;12.34;100.00;102360.41;5444327;26;20013;-73
2024/04/13 05:55:57;;;;;;;18.63;6.82;;;;;;;12.43;100.00;102363.06;5418098;26;20823;-73
2024/04/13 05:58:23;;;;;;;11.90;6.30;;;;;;;12.54;100.00;102364.72;5381559;26;20022;-73
2024/04/13 06:00:49;;;;;;;14.35;6.68;;;;;;;12.70;100.00;102353.84;5444114;26;20007;-73
2024/04/13 06:03:15;;;;;;;16.98;6.85;;;;;;;12.82;100.00;102350.16;5410515;26;19999;-73
2024/04/13 06:05:44;;;;;;;15.10;6.93;;;;;;;12.97;100.00;102353.22;5411044;26;20006;-73
2024/04/13 06:08:10;;;;;;;13.77;6.88;;;;;;;13.13;100.00;102344.91;5441903;26;20136;-73
2024/04/13 06:10:36;;;;;;;15.45;6.75;;;;;;;13.27;100.00;102348.06;5445691;26;20011;-73
2024/04/13 06:13:02;;;;;;;16.10;7.32;;;;;;;13.35;100.00;102354.25;5418087;26;20018;-73
2024/04/13 06:15:28;;;;;;;21.67;7.65;;;;;;;13.53;100.00;102354.41;5439735;26;20026;-73
2024/04/13 06:17:54;;;;;;;14.45;7.35;;;;;;;13.57;100.00;102345.34;5438205;26;20014;-74
2024/04/13 06:20:20;;;;;;;15.05;7.40;;;;;;;13.76;100.00;102352.34;5409164;26;20010;-74
2024/04/13 06:22:47;;;;;;;15.10;7.25;;;;;;;13.77;100.00;102358.38;5439758;26;20002;-73
2024/04/13 06:25:13;;;;;;;12.35;8.18;;;;;;;13.80;100.00;102355.47;5440656;26;19999;-72
2024/04/13 06:27:39;;;;;;;14.85;7.88;;;;;;;13.95;100.00;102345.44;5438682;26;20011;-73
2024/04/13 06:30:09;;;;;;;13.35;7.43;;;;;;;13.93;100.00;102348.19;5440887;26;20699;-73
2024/04/13 06:32:36;;;;;;;17.25;7.55;;;;;;;14.09;100.00;102337.19;5441945;26;20003;-73
2024/04/13 06:35:02;;;;;;;10.63;6.78;;;;;;;14.14;100.00;102344.56;5405748;26;20469;-74
2024/04/13 06:37:29;;;;;;;16.88;7.93;;;;;;;14.18;100.00;102351.16;5450711;26;20307;-73
2024/04/13 06:39:55;;;;;;;16.85;7.80;;;;;;;14.26;100.00;102346.06;5437923;26;20576;-73
2024/04/13 06:42:21;;;;;;;14.07;7.28;;;;;;;14.36;100.00;102354.66;5448214;26;20017;-73
2024/04/13 06:44:47;;;;;;;12.00;6.57;;;;;;;14.39;100.00;102348.31;5444226;26;20021;-73
2024/04/13 06:47:13;;;;;;;20.83;7.93;;;;;;;14.53;100.00;102347.03;5437519;26;20672;-73
2024/04/13 06:49:39;;;;;;;14.85;6.45;;;;;;;14.60;100.00;102337.72;5437101;26;20003;-73
2024/04/13 06:52:05;;;;;;;19.63;7.47;;;;;;;14.64;100.00;102346.88;5411800;26;20021;-73
2024/04/13 06:54:31;;;;;;;11.70;5.40;;;;;;;14.76;100.00;102340.47;5441645;26;20016;-73
2024/04/13 06:56:57;;;;;;;19.13;7.40;;;;;;;14.95;100.00;102341.34;5412149;26;20007;-73
2024/04/13 06:59:23;;;;;;;12.20;5.25;;;;;;;15.23;100.00;102342.09;5443065;26;20060;-73
2024/04/13 07:01:50;;;;;;;13.93;5.80;;;;;;;15.46;100.00;102329.41;5441631;26;20106;-73
2024/04/13 07:04:16;;;;;;;13.35;5.40;;;;;;;15.68;100.00;102328.09;5442640;26;20046;-73
2024/04/13 07:06:42;;;;;;;24.05;6.35;;;;;;;15.95;100.00;102326.34;5409486;26;20015;-73
2024/04/13 07:09:11;;;;;;;13.20;5.97;;;;;;;16.10;100.00;102329.19;5440961;26;20019;-73
2024/04/13 07:11:37;;;;;;;10.70;5.30;;;;;;;16.50;100.00;102332.97;5410303;26;20010;-73
2024/04/13 07:14:03;;;;;;;16.40;4.72;;;;;;;16.94;99.28;102330.19;5416528;26;20029;-74
2024/04/13 07:16:30;;;;;;;12.23;4.80;;;;;;;17.40;95.68;102327.13;5436556;26;20010;-73
2024/04/13 07:18:56;;;;;;;12.27;4.75;;;;;;;17.81;92.00;102327.09;5441380;26;20003;-73
2024/04/13 07:21:22;;;;;;;10.40;4.43;;;;;;;18.14;89.51;102322.63;5435337;26;20683;-73
2024/04/13 07:23:48;;;;;;;11.80;4.30;;;;;;;18.26;88.95;102318.63;5442953;26;20242;-73
2024/04/13 07:26:14;;;;;;;9.20;4.70;;;;;;;18.23;86.12;102316.34;5385043;26;20002;-73
2024/04/13 07:28:40;;;;;;;10.88;4.40;;;;;;;18.16;86.69;102322.44;5415721;26;20028;-73
2024/04/13 07:31:06;;;;;;;9.75;3.80;;;;;;;18.05;88.22;102313.94;5442441;26;20022;-73
2024/04/13 07:33:32;;;;;;;11.90;4.38;;;;;;;18.06;87.22;102310.34;5409873;26;20019;-73
2024/04/13 07:35:58;;;;;;;7.07;3.67;;;;;;;18.22;86.18;102312.06;5441060;26;20378;-73
2024/04/13 07:38:26;;;;;;;6.85;3.50;;;;;;;18.39;85.96;102310.19;5411195;26;20021;-73
2024/04/13 07:40:53;;;;;;;9.90;4.13;;;;;;;18.89;83.99;102302.88;5435562;26;19999;-73
2024/04/13 07:43:19;;;;;;;10.93;3.80;;;;;;;19.00;82.30;102296.41;5435325;26;20365;-74
2024/04/13 07:45:49;;;;;;;6.57;3.40;;;;;;;19.41;80.45;102289.00;5442191;26;19998;-74
2024/04/13 07:48:15;;;;;;;8.40;4.10;;;;;;;19.76;78.00;102284.09;5434716;26;20013;-74
2024/04/13 07:50:42;;;;;;;7.63;3.20;;;;;;;20.03;76.65;102298.41;5438564;26;20074;-74
2024/04/13 07:53:08;;;;;;;8.20;3.92;;;;;;;19.95;74.89;102295.88;5442069;26;20018;-73
2024/04/13 07:55:34;;;;;;;7.32;3.60;;;;;;;20.03;75.51;102287.88;5382220;26;20011;-74
2024/04/13 07:58:00;;;;;;;6.07;3.53;;;;;;;19.91;75.30;102288.53;5438527;26;19994;-74
2024/04/13 08:00:26;;;;;;;7.22;3.70;;;;;;;19.85;73.68;102284.78;5414129;26;20003;-74
2024/04/13 08:02:52;;;;;;;12.75;4.07;;;;;;;20.18;73.02;102285.25;5409412;26;20018;-73
2024/04/13 08:05:18;;;;;;;10.55;4.13;;;;;;;20.17;72.46;102282.78;5443143;26;20021;-74
2024/04/13 08:07:44;;;;;;;11.45;3.28;;;;;;;20.15;72.84;102288.22;5403708;26;20659;-73
2024/04/13 08:10:10;;;;;;;8.20;3.28;;;;;;;19.97;74.44;102286.00;5436055;26;20015;-73
2024/04/13 08:12:36;;;;;;;10.63;3.10;;;;;;;20.19;73.99;102281.63;5439120;26;19999;-74
2024/04/13 08:15:02;;;;;;;8.10;2.78;;;;;;;20.30;72.80;102284.75;5404260;26;20003;-73
2024/04/13 08:17:29;;;;;;;5.78;3.17;;;;;;;20.36;71.89;102276.94;5408188;26;20022;-74
2024/04/13 08:19:55;;;;;;;8.93;3.90;;;;;;;20.47;72.50;102277.47;5432811;26;20014;-74
2024/04/13 08:22:21;;;;;;;5.43;2.75;;;;;;;20.75;71.45;102273.13;5409007;26;20075;-73
2024/04/13 08:24:48;;;;;;;7.07;3.00;;;;;;;20.91;69.05;102266.78;5445358;26;20342;-74
2024/04/13 08:27:14;;;;;;;7.13;3.47;;;;;;;20.58;71.31;102272.50;5415554;26;20056;-74
2024/04/13 08:29:40;;;;;;;6.80;3.33;;;;;;;20.46;71.22;102276.66;5384195;26;20003;-73
2024/04/13 08:32:06;;;;;;;7.38;2.97;;;;;;;20.65;72.15;102269.97;5412358;26;20014;-73
2024/04/13 08:34:33;;;;;;;7.00;3.47;;;;;;;21.00;69.37;102264.81;5445903;26;20068;-74
2024/04/13 08:36:59;;;;;;;5.88;2.70;;;;;;;21.15;70.30;102264.75;5410143;26;20021;-73
2024/04/13 08:39:25;;;;;;;8.57;2.65;;;;;;;21.26;68.39;102266.03;5412959;26;20069;-74
2024/04/13 08:42:03;;;;;;;10.48;3.17;;;;;;;21.42;67.85;102268.41;5439937;26;20563;-74
2024/04/13 08:44:33;;;;;;;8.23;2.78;;;;;;;21.68;66.69;102257.22;5410073;26;19999;-74
2024/04/13 08:47:02;;;;;;;9.93;2.78;;;;;;;21.52;67.13;102255.69;5444496;26;20010;-73
2024/04/13 08:49:39;;;;;;;8.23;2.15;;;;;;;21.75;66.89;102244.84;5411123;26;20075;-73
2024/04/13 08:52:09;;;;;;;7.30;2.92;;;;;;;21.61;65.32;102253.72;5409006;26;20003;-73
2024/04/13 08:54:35;;;;;;;6.70;2.50;;;;;;;21.71;65.77;102240.97;5443300;26;20014;-74
2024/04/13 08:57:04;;;;;;;7.43;2.92;;;;;;;21.97;65.39;102242.94;5410067;26;20493;-73
2024/04/13 08:59:31;;;;;;;7.93;2.67;;;;;;;22.11;64.95;102242.97;5444690;26;20042;-74
2024/04/13 09:01:57;;;;;;;7.38;2.67;;;;;;;22.14;62.31;102247.88;5413048;26;20007;-74
2024/04/13 09:04:23;;;;;;;10.07;2.45;;;;;;;22.30;62.68;102242.28;5444577;26;20074;-74
2024/04/13 09:06:50;;;;;;;6.50;2.67;;;;;;;22.31;63.22;102233.31;5445910;26;20003;-74
2024/04/13 09:09:16;;;;;;;6.65;2.47;;;;;;;22.50;62.03;102234.38;5380549;26;19995;-74
2024/04/13 09:11:42;;;;;;;10.60;2.78;;;;;;;22.59;62.34;102239.47;5446882;26;20021;-75
2024/04/13 09:14:11;;;;;;;7.35;2.97;;;;;;;22.38;62.34;102228.06;5414246;26;20003;-74
2024/04/13 09:16:38;;;;;;;4.72;2.20;;;;;;;22.40;63.08;102225.22;5410008;26;20003;-74
2024/04/13 09:19:04;;;;;;;5.78;2.80;;;;;;;22.33;62.86;102228.66;5444390;26;20002;-73
2024/04/13 09:21:31;;;;;;;6.38;2.60;;;;;;;22.42;64.26;102228.47;5444118;26;20014;-73
2024/04/13 09:23:57;;;;;;;7.85;2.22;;;;;;;22.52;63.05;102227.06;5434562;26;20054;-73
2024/04/13 09:26:23;;;;;;;4.15;2.00;;;;;;;22.76;64.40;102229.34;5413955;26;20075;-75
2024/04/13 09:28:49;;;;;;;9.85;2.35;;;;;;;22.95;60.81;102225.88;5444665;26;19999;-75
2024/04/13 09:31:17;;;;;;;4.40;2.13;;;;;;;23.10;62.07;102225.69;5412245;26;22232;-74
2024/04/13 09:33:48;;;;;;;6.22;2.13;;;;;;;23.23;60.25;102214.28;5411268;26;20458;-74
2024/04/13 09:36:25;;;;;;;6.13;2.53;;;;;;;23.04;61.32;102216.75;5445197;26;20007;-74
2024/04/13 09:38:53;;;;;;;8.30;2.35;;;;;;;22.84;63.08;102227.28;5442200;26;20004;-73
2024/04/13 09:41:20;;;;;;;6.18;2.60;;;;;;;22.89;61.00;102214.28;5438927;26;20014;-74
2024/04/13 09:43:50;;;;;;;8.05;2.55;;;;;;;22.88;60.74;102217.91;5411701;26;20010;-74
2024/04/13 09:46:20;;;;;;;8.15;3.03;;;;;;;22.70;60.20;102210.63;5410286;26;20011;-74
2024/04/13 09:48:46;;;;;;;5.75;2.65;;;;;;;22.70;61.10;102212.44;5412652;26;20076;-74
2024/04/13 09:51:12;;;;;;;9.23;2.80;;;;;;;22.65;61.19;102212.22;5441454;26;20537;-74
2024/04/13 09:53:38;;;;;;;4.80;2.28;;;;;;;22.67;61.33;102213.66;5443394;26;20004;-73
2024/04/13 09:56:05;;;;;;;7.28;3.05;;;;;;;22.84;62.19;102200.84;5441671;26;20345;-75
2024/04/13 09:58:32;;;;;;;5.32;2.13;;;;;;;23.05;63.22;102199.03;5410050;26;20043;-74
2024/04/13 10:01:02;;;;;;;14.25;4.15;;;;;;;22.95;58.65;102202.06;5390955;26;20040;-74
2024/04/13 10:03:28;;;;;;;8.57;3.13;;;;;;;23.14;59.88;102189.84;5440994;26;20017;-74
2024/04/13 10:05:55;;;;;;;10.07;2.53;;;;;;;23.12;59.78;102176.03;5450534;26;20760;-76
2024/04/13 10:08:24;;;;;;;5.90;2.53;;;;;;;23.12;61.31;102166.25;5446589;26;20003;-75
2024/04/13 10:10:51;;;;;;;6.45;2.72;;;;;;;22.98;59.67;102175.22;5435309;26;20084;-74
2024/04/13 10:13:30;;;;;;;6.13;3.15;;;;;;;23.06;60.37;102169.72;5409279;26;20003;-75
2024/04/13 10:15:58;;;;;;;5.88;2.20;;;;;;;23.32;60.46;102166.22;5445109;26;20006;-74
2024/04/13 10:18:25;;;;;;;5.93;2.60;;;;;;;23.45;60.22;102157.44;5409411;26;20007;-75
2024/04/13 10:20:51;;;;;;;8.90;3.35;;;;;;;23.50;57.68;102149.66;5412147;26;20057;-74
2024/04/13 10:23:17;;;;;;;5.88;2.45;;;;;;;23.60;58.71;102154.53;5438113;26;19999;-74
2024/04/13 10:25:43;;;;;;;5.13;2.67;;;;;;;23.25;59.41;102146.91;5405769;26;20003;-75
2024/04/13 10:28:20;;;;;;;6.32;2.72;;;;;;;23.40;59.75;102145.84;5435322;26;20520;-74
2024/04/13 10:30:52;;;;;;;9.13;2.22;;;;;;;23.44;58.23;102139.91;5440230;26;20469;-74
2024/04/13 10:33:31;;;;;;;9.00;2.25;;;;;;;23.51;58.92;102138.06;5413233;26;19998;-74
2024/04/13 10:36:04;;;;;;;10.23;2.85;;;;;;;23.33;57.92;102124.69;5441627;26;20055;-75
2024/04/13 10:38:35;;;;;;;5.90;2.40;;;;;;;23.36;59.93;102139.31;5438758;26;19996;-74
2024/04/13 10:41:01;;;;;;;10.25;2.60;;;;;;;23.62;57.43;102119.88;5439397;26;20011;-74
2024/04/13 10:43:28;;;;;;;4.47;2.53;;;;;;;23.65;57.01;102125.56;5409153;26;20007;-75
2024/04/13 10:45:59;;;;;;;5.60;2.78;;;;;;;23.82;56.89;102112.66;5439934;26;20047;-75
2024/04/13 10:48:30;;;;;;;6.63;2.47;;;;;;;23.86;57.79;102103.25;5441217;26;20010;-75
2024/04/13 10:50:57;;;;;;;6.80;2.83;;;;;;;23.83;56.31;102105.56;5410904;26;19995;-74
2024/04/13 10:53:26;;;;;;;8.13;2.50;;;;;;;23.82;56.38;102102.06;5412501;26;20003;-75
2024/04/13 10:55:55;;;;;;;7.40;2.60;;;;;;;23.60;55.85;102109.50;5409587;26;20010;-74
2024/04/13 10:58:21;;;;;;;5.95;2.30;;;;;;;23.51;57.04;102110.78;5381271;26;20489;-75
2024/04/13 11:00:49;;;;;;;9.43;2.65;;;;;;;23.64;56.01;102092.19;5438364;26;20011;-75
2024/04/13 11:03:16;;;;;;;8.57;3.28;;;;;;;23.66;56.78;102091.97;5408946;26;20003;-74
2024/04/13 11:05:45;;;;;;;10.77;2.80;;;;;;;23.81;55.93;102076.63;5410262;26;20072;-75
2024/04/13 11:08:12;;;;;;;5.57;2.50;;;;;;;23.84;56.88;102084.13;5409480;26;20007;-75
2024/04/13 11:10:45;;;;;;;9.63;2.70;;;;;;;23.90;58.19;102085.94;5442872;26;20465;-74
2024/04/13 11:13:11;;;;;;;6.00;2.20;;;;;;;24.12;57.26;102074.97;5401200;26;20080;-75
2024/04/13 11:15:37;;;;;;;10.23;2.47;;;;;;;23.85;55.61;102063.78;5411453;26;20002;-75